createdAt,value
2022-11-18T00:00:53.926Z,46.87
2022-11-18T00:01:54.062Z,50.23
2022-11-18T00:02:53.988Z,51.35
2022-11-18T00:03:53.921Z,49.46
2022-11-18T00:04:53.905Z,50.39
2022-11-18T00:05:53.904Z,51.24
2022-11-18T00:06:53.951Z,50.14
2022-11-18T00:07:53.888Z,51.02
2022-11-18T00:08:53.877Z,52.92
2022-11-18T00:09:53.879Z,49.09
2022-11-18T00:10:53.870Z,45.16
2022-11-18T00:11:53.842Z,50.08
2022-11-18T00:12:53.858Z,45.64
2022-11-18T00:13:53.852Z,48.00
2022-11-18T00:14:53.840Z,56.17
2022-11-18T00:15:53.863Z,51.54
2022-11-18T00:16:53.868Z,51.25
2022-11-18T00:17:53.835Z,50.22
2022-11-18T00:18:53.788Z,47.14
2022-11-18T00:19:53.825Z,55.66
2022-11-18T00:20:53.781Z,53.30
2022-11-18T00:21:53.771Z,51.43
2022-11-18T00:22:53.779Z,56.51
2022-11-18T00:23:53.829Z,44.94
2022-11-18T00:24:54.006Z,44.85
2022-11-18T00:25:53.783Z,45.28
2022-11-18T00:26:53.723Z,52.09
2022-11-18T00:27:53.733Z,50.57
2022-11-18T00:28:53.716Z,43.90
2022-11-18T00:29:53.741Z,43.86
2022-11-18T00:30:53.729Z,44.02
2022-11-18T00:31:53.724Z,43.88
2022-11-18T00:32:53.706Z,44.11
2022-11-18T00:33:53.675Z,50.27
2022-11-18T00:34:53.673Z,47.86
2022-11-18T00:35:53.688Z,54.16
2022-11-18T00:36:53.681Z,56.61
2022-11-18T00:37:53.672Z,50.11
2022-11-18T00:38:53.638Z,46.09
2022-11-18T00:39:53.672Z,50.97
2022-11-18T00:40:53.686Z,49.52
2022-11-18T00:41:53.660Z,46.42
2022-11-18T00:42:53.625Z,44.36
2022-11-18T00:43:53.627Z,44.27
2022-11-18T00:44:53.611Z,44.21
2022-11-18T00:45:53.588Z,44.23
2022-11-18T00:46:53.603Z,43.92
2022-11-18T00:47:53.593Z,44.38
2022-11-18T00:48:53.578Z,44.41
2022-11-18T00:49:53.565Z,50.11
2022-11-18T00:50:53.568Z,44.11
2022-11-18T00:51:53.580Z,44.28
2022-11-18T00:52:53.603Z,49.47
2022-11-18T00:53:53.526Z,43.36
2022-11-18T00:54:54.541Z,43.68
2022-11-18T00:55:53.588Z,44.02
2022-11-18T00:56:53.526Z,50.70
2022-11-18T00:57:53.589Z,45.63
2022-11-18T00:58:53.536Z,51.41
2022-11-18T00:59:53.519Z,44.71
2022-11-18T01:00:53.528Z,44.32
2022-11-18T01:01:53.565Z,43.44
2022-11-18T01:02:53.463Z,56.05
2022-11-18T01:03:53.475Z,52.38
2022-11-18T01:04:53.452Z,50.06
2022-11-18T01:05:53.467Z,45.11
2022-11-18T01:06:53.517Z,53.42
2022-11-18T01:07:53.434Z,44.08
2022-11-18T01:08:53.462Z,55.32
2022-11-18T01:09:53.447Z,54.95
2022-11-18T01:10:53.465Z,52.54
2022-11-18T01:11:53.414Z,54.66
2022-11-18T01:12:54.611Z,60.61
2022-11-18T01:13:54.392Z,45.69
2022-11-18T01:14:53.408Z,51.76
2022-11-18T01:15:53.428Z,57.58
2022-11-18T01:16:53.388Z,53.41
2022-11-18T01:17:53.358Z,51.87
2022-11-18T01:18:53.369Z,58.13
2022-11-18T01:19:53.384Z,47.41
2022-11-18T01:20:53.330Z,51.07
2022-11-18T01:21:53.330Z,55.76
2022-11-18T01:22:53.328Z,50.92
2022-11-18T01:23:53.367Z,57.60
2022-11-18T01:24:53.372Z,46.31
2022-11-18T01:25:53.285Z,60.96
2022-11-18T01:26:53.283Z,57.99
2022-11-18T01:27:53.278Z,53.21
2022-11-18T01:28:53.293Z,57.20
2022-11-18T01:29:53.292Z,52.33
2022-11-18T01:30:53.256Z,44.17
2022-11-18T01:32:22.982Z,45.00
2022-11-18T01:32:55.256Z,44.45
2022-11-18T01:33:53.307Z,54.52
2022-11-18T01:34:53.238Z,46.62
2022-11-18T01:35:53.271Z,52.59
2022-11-18T01:36:53.239Z,46.25
2022-11-18T01:37:53.222Z,55.55
2022-11-18T01:38:53.196Z,55.06
2022-11-18T01:39:53.211Z,48.38
2022-11-18T01:40:53.206Z,51.31
2022-11-18T01:41:53.210Z,50.80
2022-11-18T01:42:53.314Z,45.32
2022-11-18T01:43:53.172Z,50.48
2022-11-18T01:44:53.186Z,55.46
2022-11-18T02:03:46.713Z,46.13
2022-11-18T02:04:46.699Z,51.34
2022-11-18T02:05:47.827Z,44.85
2022-11-18T02:06:47.900Z,50.64
2022-11-18T02:07:47.798Z,53.41
2022-11-18T02:08:47.827Z,58.97
2022-11-18T02:09:47.813Z,45.85
2022-11-18T02:10:47.772Z,45.44
2022-11-18T02:11:47.838Z,45.87
2022-11-18T02:12:47.922Z,44.77
2022-11-18T02:13:47.871Z,51.70
2022-11-18T02:14:47.747Z,44.04
2022-11-18T02:15:47.761Z,44.56
2022-11-18T02:16:47.760Z,51.80
2022-11-18T02:17:47.742Z,45.35
2022-11-18T02:18:47.718Z,52.33
2022-11-18T02:19:47.705Z,51.67
2022-11-18T02:20:47.720Z,45.59
2022-11-18T02:21:47.695Z,45.28
2022-11-18T02:22:47.683Z,44.76
2022-11-18T02:23:47.737Z,44.15
2022-11-18T02:24:47.722Z,44.37
2022-11-18T02:25:47.668Z,49.71
2022-11-18T02:26:47.681Z,44.69
2022-11-18T02:27:47.647Z,45.00
2022-11-18T02:28:47.687Z,44.35
2022-11-18T02:29:47.656Z,44.64
2022-11-18T02:30:47.688Z,51.66
2022-11-18T02:31:47.653Z,45.09
2022-11-18T02:32:47.607Z,50.85
2022-11-18T02:33:47.634Z,51.37
2022-11-18T02:34:47.610Z,50.55
2022-11-18T02:35:47.643Z,45.88
2022-11-18T02:36:47.628Z,44.18
2022-11-18T02:37:47.680Z,44.77
2022-11-18T02:38:47.563Z,49.36
2022-11-18T02:39:47.566Z,50.75
2022-11-18T02:40:47.547Z,50.40
2022-11-18T02:41:47.585Z,49.95
2022-11-18T02:42:48.556Z,50.77
2022-11-18T02:43:47.545Z,50.81
2022-11-18T02:44:47.527Z,50.40
2022-11-18T02:45:47.556Z,44.98
2022-11-18T02:46:47.551Z,49.99
2022-11-18T02:48:19.425Z,44.58
2022-11-18T02:48:47.514Z,45.85
2022-11-18T02:49:47.509Z,44.99
2022-11-18T02:50:47.489Z,50.50
2022-11-18T02:51:48.480Z,44.15
2022-11-18T02:52:47.477Z,44.43
2022-11-18T02:53:47.483Z,49.04
2022-11-18T02:54:47.493Z,51.26
2022-11-18T02:55:47.472Z,44.77
2022-11-18T02:56:47.433Z,44.40
2022-11-18T02:57:47.432Z,49.30
2022-11-18T02:58:47.427Z,44.65
2022-11-18T02:59:47.401Z,44.61
2022-11-18T03:00:47.423Z,54.66
2022-11-18T03:01:47.447Z,52.13
2022-11-18T03:02:47.392Z,44.72
2022-11-18T03:03:47.387Z,53.99
2022-11-18T03:04:47.385Z,49.16
2022-11-18T03:05:47.379Z,51.25
2022-11-18T03:06:47.398Z,55.75
2022-11-18T03:07:47.372Z,51.03
2022-11-18T03:08:47.338Z,47.31
2022-11-18T03:09:47.388Z,52.04
2022-11-18T03:10:47.405Z,53.38
2022-11-18T03:11:47.386Z,52.28
2022-11-18T03:12:47.320Z,55.88
2022-11-18T03:13:47.348Z,44.55
2022-11-18T03:14:47.317Z,50.31
2022-11-18T03:15:47.287Z,50.52
2022-11-18T03:16:47.278Z,49.92
2022-11-18T03:17:48.321Z,44.12
2022-11-18T03:18:48.318Z,44.29
2022-11-18T03:19:47.272Z,50.68
2022-11-18T03:20:47.278Z,44.79
2022-11-18T03:21:47.253Z,50.02
2022-11-18T03:22:47.263Z,53.02
2022-11-18T03:23:47.240Z,46.16
2022-11-18T03:24:47.258Z,49.22
2022-11-18T03:25:47.203Z,44.17
2022-11-18T03:26:47.255Z,46.52
2022-11-18T03:27:47.284Z,62.89
2022-11-18T03:28:47.206Z,54.09
2022-11-18T03:29:47.219Z,56.11
2022-11-18T03:30:47.223Z,45.13
2022-11-18T03:31:47.227Z,54.97
2022-11-18T03:32:47.192Z,44.24
2022-11-18T03:33:47.164Z,49.46
2022-11-18T03:34:47.154Z,57.06
2022-11-18T03:35:47.152Z,49.09
2022-11-18T03:36:51.646Z,44.45
2022-11-18T03:37:48.147Z,44.47
2022-11-18T03:38:47.127Z,56.28
2022-11-18T03:39:47.132Z,53.06
2022-11-18T03:40:47.134Z,46.08
2022-11-18T03:41:47.105Z,45.77
2022-11-18T03:42:47.116Z,62.11
2022-11-18T03:43:47.097Z,50.18
2022-11-18T03:44:52.087Z,53.12
2022-11-18T03:45:49.082Z,51.36
2022-11-18T03:46:47.069Z,61.85
2022-11-18T04:04:04.615Z,61.92
2022-11-18T04:04:57.575Z,61.73
2022-11-18T04:06:31.628Z,48.99
2022-11-18T04:06:58.779Z,63.08
2022-11-18T04:08:30.626Z,54.80
2022-11-18T04:09:30.576Z,48.87
2022-11-18T04:09:58.671Z,56.53
2022-11-18T04:10:58.728Z,58.54
2022-11-18T04:11:58.661Z,60.11
2022-11-18T04:13:04.707Z,47.94
2022-11-18T04:14:00.646Z,60.13
2022-11-18T04:14:58.636Z,54.49
2022-11-18T04:15:58.615Z,57.26
2022-11-18T04:16:58.613Z,62.02
2022-11-18T04:17:58.623Z,62.01
2022-11-18T04:19:04.390Z,65.12
2022-11-18T04:20:00.587Z,62.99
2022-11-18T04:21:30.500Z,61.92
2022-11-18T04:22:30.495Z,60.87
2022-11-18T04:23:30.475Z,63.82
2022-11-18T04:24:30.471Z,58.01
2022-11-18T04:25:30.478Z,49.44
2022-11-18T04:26:31.009Z,48.46
2022-11-18T04:26:58.634Z,57.44
2022-11-18T04:27:58.657Z,59.47
2022-11-18T04:28:58.552Z,62.07
2022-11-18T04:29:58.536Z,51.93
2022-11-18T04:30:58.533Z,58.72
2022-11-18T04:31:58.506Z,64.53
2022-11-18T04:32:58.527Z,63.51
2022-11-18T04:33:58.579Z,66.00
2022-11-18T04:34:58.534Z,64.22
2022-11-18T04:35:58.566Z,61.14
2022-11-18T04:36:58.526Z,60.07
2022-11-18T04:37:58.519Z,60.06
2022-11-18T04:38:58.518Z,60.96
2022-11-18T04:39:58.502Z,63.81
2022-11-18T04:40:58.489Z,57.55
2022-11-18T04:41:58.561Z,64.63
2022-11-18T04:42:58.480Z,67.69
2022-11-18T04:43:58.464Z,63.16
2022-11-18T04:44:58.456Z,61.33
2022-11-18T04:45:58.436Z,61.21
2022-11-18T04:46:58.451Z,64.29
2022-11-18T04:48:03.228Z,58.07
2022-11-18T04:49:00.496Z,62.73
2022-11-18T04:49:58.492Z,61.89
2022-11-18T04:50:58.437Z,64.88
2022-11-18T04:51:58.424Z,58.30
2022-11-18T04:52:58.345Z,64.30
2022-11-18T04:53:58.336Z,64.09
2022-11-18T04:54:58.404Z,60.93
2022-11-18T04:55:58.330Z,63.20
2022-11-18T04:56:58.386Z,61.87
2022-11-18T04:57:58.319Z,56.52
2022-11-18T04:58:58.327Z,63.07
2022-11-18T04:59:58.359Z,51.77
2022-11-18T05:00:58.417Z,57.75
2022-11-18T05:01:58.372Z,63.46
2022-11-18T05:03:30.190Z,61.60
2022-11-18T05:03:58.245Z,67.05
2022-11-18T05:04:58.251Z,60.43
2022-11-18T05:05:58.264Z,64.95
2022-11-18T05:06:58.311Z,69.09
2022-11-18T05:07:58.247Z,59.94
2022-11-18T05:08:58.250Z,57.82
2022-11-18T05:09:58.213Z,62.90
2022-11-18T05:10:58.195Z,63.26
2022-11-18T05:11:58.213Z,67.94
2022-11-18T05:12:58.213Z,63.60
2022-11-18T05:13:58.179Z,60.57
2022-11-18T05:15:30.101Z,59.27
2022-11-18T05:16:30.087Z,55.76
2022-11-18T05:16:58.173Z,53.78
2022-11-18T05:17:58.213Z,62.33
2022-11-18T05:18:58.149Z,64.97
2022-11-18T05:19:58.177Z,59.15
2022-11-18T05:20:58.143Z,64.48
2022-11-18T05:21:58.162Z,66.22
2022-11-18T05:22:58.218Z,66.02
2022-11-18T05:23:58.092Z,63.71
2022-11-18T05:24:58.120Z,64.07
2022-11-18T05:26:02.328Z,67.93
2022-11-18T05:26:59.149Z,68.65
2022-11-18T05:27:58.068Z,65.17
2022-11-18T05:28:58.085Z,69.55
2022-11-18T05:29:58.074Z,66.58
2022-11-18T05:30:58.044Z,68.28
2022-11-18T05:31:58.075Z,65.67
2022-11-18T05:32:58.061Z,59.70
2022-11-18T05:33:58.537Z,66.02
2022-11-18T05:34:58.010Z,66.39
2022-11-18T05:35:58.108Z,69.49
2022-11-18T05:36:57.994Z,65.68
2022-11-18T05:37:57.988Z,66.16
2022-11-18T05:38:58.022Z,66.58
2022-11-18T05:39:58.058Z,67.34
2022-11-18T05:40:58.031Z,68.52
2022-11-18T05:41:57.981Z,65.13
2022-11-18T05:42:57.960Z,68.50
2022-11-18T05:43:57.927Z,68.17
2022-11-18T05:44:58.898Z,70.12
2022-11-18T05:45:59.000Z,68.62
2022-11-18T05:46:57.917Z,71.79
2022-11-18T05:47:57.964Z,69.99
2022-11-18T05:48:57.975Z,69.40
2022-11-18T05:49:57.942Z,66.96
2022-11-18T05:50:57.931Z,62.10
2022-11-18T05:51:57.937Z,64.29
2022-11-18T05:52:57.911Z,69.20
2022-11-18T05:53:57.848Z,65.89
2022-11-18T05:54:57.889Z,62.71
2022-11-18T05:55:57.906Z,64.83
2022-11-18T05:56:57.894Z,67.51
2022-11-18T05:57:57.848Z,64.30
2022-11-18T05:58:57.831Z,70.48
2022-11-18T05:59:57.847Z,62.79
2022-11-18T06:00:57.849Z,61.76
2022-11-18T06:01:57.834Z,69.41
2022-11-18T06:02:57.851Z,65.91
2022-11-18T06:03:57.816Z,66.70
2022-11-18T06:04:57.806Z,69.80
2022-11-18T06:05:57.772Z,66.56
2022-11-18T06:06:57.869Z,70.73
2022-11-18T06:07:57.791Z,69.39
2022-11-18T06:08:57.751Z,70.26
2022-11-18T06:10:02.111Z,71.94
2022-11-18T06:10:59.770Z,61.70
2022-11-18T06:11:57.754Z,66.29
2022-11-18T06:12:57.859Z,73.84
2022-11-18T06:13:57.898Z,71.67
2022-11-18T06:14:57.723Z,68.30
2022-11-18T06:15:57.693Z,73.52
2022-11-18T06:16:57.687Z,72.56
2022-11-18T06:17:57.708Z,66.45
2022-11-18T06:18:58.473Z,70.10
2022-11-18T06:19:57.768Z,71.29
2022-11-18T06:20:57.892Z,67.32
2022-11-18T06:21:57.662Z,63.39
2022-11-18T06:22:57.680Z,71.46
2022-11-18T06:23:57.663Z,69.90
2022-11-18T06:24:57.685Z,71.90
2022-11-18T06:25:57.674Z,68.22
2022-11-18T06:26:57.609Z,66.57
2022-11-18T06:27:57.598Z,73.04
2022-11-18T06:28:57.603Z,71.00
2022-11-18T06:29:57.593Z,68.10
2022-11-18T06:30:57.576Z,64.96
2022-11-18T06:31:57.578Z,68.12
2022-11-18T06:32:57.616Z,74.02
2022-11-18T06:33:57.569Z,73.22
2022-11-18T06:34:57.588Z,71.58
2022-11-18T06:35:57.551Z,71.78
2022-11-18T06:36:57.533Z,70.32
2022-11-18T06:37:57.538Z,69.77
2022-11-18T06:38:57.535Z,69.94
2022-11-18T06:39:57.566Z,69.66
2022-11-18T06:40:57.498Z,69.89
2022-11-18T06:41:57.519Z,67.98
2022-11-18T06:42:57.464Z,70.92
2022-11-18T06:43:57.458Z,70.08
2022-11-18T06:44:58.542Z,72.68
2022-11-18T06:45:57.474Z,70.65
2022-11-18T06:46:57.471Z,72.80
2022-11-18T06:47:57.465Z,71.63
2022-11-18T06:48:57.463Z,69.14
2022-11-18T06:49:57.454Z,67.61
2022-11-18T06:50:57.455Z,67.40
2022-11-18T06:51:58.193Z,63.27
2022-11-18T06:52:57.457Z,69.21
2022-11-18T06:53:57.407Z,70.81
2022-11-18T06:54:57.434Z,68.80
2022-11-18T06:55:57.377Z,64.67
2022-11-18T06:56:57.425Z,70.67
2022-11-18T06:57:57.405Z,65.07
2022-11-18T06:58:57.421Z,69.11
2022-11-18T07:00:01.817Z,64.50
2022-11-18T07:00:59.515Z,65.95
2022-11-18T07:01:57.342Z,71.30
2022-11-18T07:03:29.251Z,68.31
2022-11-18T07:03:57.396Z,70.17
2022-11-18T07:04:57.315Z,66.77
2022-11-18T07:05:57.318Z,64.43
2022-11-18T07:06:57.387Z,67.07
2022-11-18T07:07:58.265Z,67.77
2022-11-18T07:08:57.289Z,69.71
2022-11-18T07:09:58.065Z,70.98
2022-11-18T07:10:57.248Z,64.20
2022-11-18T07:11:57.247Z,68.88
2022-11-18T07:12:57.321Z,61.21
2022-11-18T07:13:57.273Z,70.22
2022-11-18T07:14:57.260Z,70.00
2022-11-18T07:15:57.246Z,70.26
2022-11-18T07:16:57.217Z,64.65
2022-11-18T07:17:57.226Z,67.49
2022-11-18T07:18:57.265Z,65.88
2022-11-18T07:19:57.239Z,64.81
2022-11-18T07:20:57.179Z,67.88
2022-11-18T07:21:57.195Z,67.37
2022-11-18T07:22:57.216Z,64.62
2022-11-18T07:23:58.181Z,68.78
2022-11-18T07:24:57.193Z,65.24
2022-11-18T07:25:57.163Z,67.26
2022-11-18T07:26:57.209Z,66.31
2022-11-18T07:27:57.150Z,62.67
2022-11-18T07:28:57.122Z,72.79
2022-11-18T07:29:57.115Z,56.80
2022-11-18T07:30:57.182Z,70.05
2022-11-18T07:31:57.120Z,70.92
2022-11-18T07:32:57.125Z,66.85
2022-11-18T07:33:57.076Z,70.27
2022-11-18T07:34:57.084Z,67.72
2022-11-18T07:35:58.064Z,65.02
2022-11-18T07:36:57.075Z,66.57
2022-11-18T07:37:57.046Z,68.61
2022-11-18T07:38:57.059Z,58.54
2022-11-18T07:39:57.036Z,73.13
2022-11-18T07:40:57.037Z,60.33
2022-11-18T07:41:57.025Z,69.18
2022-11-18T07:42:57.025Z,68.73
2022-11-18T07:44:00.480Z,69.11
2022-11-18T07:44:57.995Z,70.74
2022-11-18T07:45:56.997Z,65.87
2022-11-18T07:46:57.039Z,63.00
2022-11-18T07:47:56.991Z,68.09
2022-11-18T07:48:56.969Z,70.56
2022-11-18T07:49:56.938Z,70.27
2022-11-18T07:50:56.964Z,67.34
2022-11-18T07:51:57.018Z,62.59
2022-11-18T07:52:56.945Z,64.58
2022-11-18T07:53:56.922Z,70.98
2022-11-18T07:54:56.924Z,68.41
2022-11-18T07:55:56.897Z,62.31
2022-11-18T07:56:56.940Z,68.93
2022-11-18T07:57:56.923Z,72.93
2022-11-18T07:58:56.911Z,64.95
2022-11-18T07:59:56.894Z,66.54
2022-11-18T08:00:56.855Z,66.84
2022-11-18T08:01:56.937Z,67.96
2022-11-18T08:02:56.856Z,62.55
2022-11-18T08:03:56.872Z,68.34
2022-11-18T08:04:56.854Z,67.18
2022-11-18T08:05:56.853Z,70.14
2022-11-18T08:06:56.978Z,61.84
2022-11-18T08:07:56.808Z,69.70
2022-11-18T08:08:56.831Z,66.50
2022-11-18T08:09:56.799Z,65.09
2022-11-18T08:10:56.817Z,70.33
2022-11-18T08:11:56.784Z,61.32
2022-11-18T08:12:56.795Z,67.62
2022-11-18T08:13:56.794Z,67.66
2022-11-18T08:14:56.790Z,66.96
2022-11-18T08:15:56.758Z,61.39
2022-11-18T08:16:56.780Z,65.90
2022-11-18T08:17:56.754Z,69.60
2022-11-18T08:18:56.739Z,65.13
2022-11-18T08:19:56.785Z,63.18
2022-11-18T08:20:56.740Z,69.55
2022-11-18T08:21:56.733Z,63.90
2022-11-18T08:22:56.701Z,68.01
2022-11-18T08:23:56.763Z,67.08
2022-11-18T08:24:56.700Z,70.29
2022-11-18T08:25:56.725Z,70.61
2022-11-18T08:26:56.675Z,67.03
2022-11-18T08:27:56.669Z,67.58
2022-11-18T08:28:56.756Z,66.32
2022-11-18T08:29:56.685Z,62.46
2022-11-18T08:30:56.662Z,67.44
2022-11-18T08:31:56.658Z,68.30
2022-11-18T08:32:56.639Z,68.15
2022-11-18T08:33:56.608Z,70.02
2022-11-18T08:34:56.627Z,70.91
2022-11-18T08:35:56.665Z,64.83
2022-11-18T08:36:56.645Z,69.53
2022-11-18T08:37:56.660Z,63.51
2022-11-18T08:38:56.616Z,67.80
2022-11-18T08:39:56.669Z,69.56
2022-11-18T08:40:56.609Z,62.60
2022-11-18T08:41:56.588Z,64.50
2022-11-18T08:42:57.531Z,70.81
2022-11-18T08:43:56.539Z,68.91
2022-11-18T08:44:56.560Z,69.40
2022-11-18T08:45:56.556Z,64.07
2022-11-18T08:46:56.584Z,64.89
2022-11-18T08:47:56.554Z,66.97
2022-11-18T08:48:56.514Z,71.72
2022-11-18T08:49:56.493Z,70.03
2022-11-18T08:50:56.642Z,67.66
2022-11-18T08:51:56.506Z,69.28
2022-11-18T08:52:56.474Z,64.75
2022-11-18T08:53:57.545Z,66.17
2022-11-18T08:54:56.455Z,64.95
2022-11-18T08:55:57.356Z,65.82
2022-11-18T08:56:57.441Z,65.98
2022-11-18T08:57:56.436Z,68.47
2022-11-18T08:58:56.491Z,67.52
2022-11-18T08:59:56.497Z,69.99
2022-11-18T09:00:56.445Z,61.02
2022-11-18T09:01:57.552Z,66.38
2022-11-18T09:02:56.447Z,69.68
2022-11-18T09:03:56.522Z,61.17
2022-11-18T09:04:56.395Z,71.05
2022-11-18T09:05:56.432Z,69.58
2022-11-18T09:06:56.448Z,65.66
2022-11-18T09:07:56.442Z,64.07
2022-11-18T09:08:56.356Z,67.50
2022-11-18T09:09:56.382Z,66.70
2022-11-18T09:10:56.322Z,68.95
2022-11-18T09:15:41.995Z,68.76
2022-11-18T09:16:16.067Z,69.58
2022-11-18T09:17:47.920Z,65.89
2022-11-18T09:18:47.981Z,67.11
2022-11-18T09:19:45.467Z,65.31
2022-11-18T09:20:47.987Z,67.97
2022-11-18T09:21:48.413Z,50.23
2022-11-18T09:22:47.931Z,61.08
2022-11-18T09:23:16.010Z,69.59
2022-11-18T09:24:16.717Z,66.65
2022-11-18T09:25:47.924Z,66.56
2022-11-18T09:26:15.981Z,68.62
2022-11-18T09:27:47.848Z,69.04
2022-11-18T09:28:47.892Z,68.39
2022-11-18T09:29:15.969Z,65.74
2022-11-18T09:30:16.728Z,69.32
2022-11-18T09:31:15.944Z,66.67
2022-11-18T09:32:16.813Z,69.77
2022-11-18T09:33:20.371Z,70.30
2022-11-18T09:34:17.288Z,66.49
2022-11-18T09:35:15.889Z,65.83
2022-11-18T09:36:15.926Z,70.94
2022-11-18T09:37:48.811Z,67.45
2022-11-18T09:38:15.856Z,69.41
2022-11-18T09:39:16.055Z,70.39
2022-11-18T09:40:15.885Z,66.49
2022-11-18T09:41:15.884Z,69.61
2022-11-18T09:42:15.875Z,69.57
2022-11-18T09:43:15.827Z,68.24
2022-11-18T09:44:15.869Z,70.57
2022-11-18T09:45:20.743Z,68.87
2022-11-18T09:46:17.827Z,70.48
2022-11-18T09:47:16.793Z,69.92
2022-11-18T09:48:15.795Z,66.23
2022-11-18T09:49:16.177Z,69.66
2022-11-18T09:50:47.167Z,64.01
2022-11-18T09:51:17.801Z,63.83
2022-11-18T09:52:15.746Z,67.13
2022-11-18T09:53:15.738Z,67.92
2022-11-18T09:54:16.287Z,64.88
2022-11-18T09:55:15.850Z,62.33
2022-11-18T09:56:15.867Z,68.12
2022-11-18T09:57:15.720Z,70.65
2022-11-18T09:58:15.698Z,69.09
2022-11-18T09:59:15.694Z,64.67
2022-11-18T10:00:15.728Z,69.82
2022-11-18T10:01:15.779Z,65.54
2022-11-18T10:02:15.727Z,69.24
2022-11-18T10:03:15.694Z,69.23
2022-11-18T10:04:15.943Z,67.51
2022-11-18T10:05:15.640Z,71.81
2022-11-18T10:06:47.643Z,67.88
2022-11-18T10:07:47.670Z,56.73
2022-11-18T10:08:15.737Z,66.35
2022-11-18T10:09:47.549Z,65.28
2022-11-18T10:10:15.680Z,62.16
2022-11-18T10:11:15.646Z,63.74
2022-11-18T10:12:47.528Z,66.60
2022-11-18T10:13:15.627Z,67.40
2022-11-18T10:14:15.916Z,68.36
2022-11-18T10:15:15.800Z,68.90
2022-11-18T10:16:15.643Z,69.27
2022-11-18T10:17:15.592Z,62.37
2022-11-18T10:18:26.450Z,66.82
2022-11-18T10:19:17.547Z,65.10
2022-11-18T10:20:16.538Z,67.48
2022-11-18T10:21:15.529Z,66.13
2022-11-18T10:22:22.688Z,66.93
2022-11-18T10:23:17.507Z,66.43
2022-11-18T10:24:15.834Z,69.79
2022-11-18T10:25:15.670Z,67.76
2022-11-18T10:26:15.497Z,64.65
2022-11-18T10:27:15.520Z,69.47
2022-11-18T10:28:15.512Z,69.91
2022-11-18T10:29:15.463Z,61.40
2022-11-18T10:30:16.470Z,71.30
2022-11-18T10:31:15.440Z,72.72
2022-11-18T10:32:15.474Z,69.15
2022-11-18T10:33:15.450Z,63.30
2022-11-18T10:34:15.679Z,67.21
2022-11-18T10:35:15.471Z,64.93
2022-11-18T10:36:15.411Z,68.52
2022-11-18T10:37:15.415Z,68.66
2022-11-18T10:38:15.423Z,66.53
2022-11-18T10:39:15.507Z,68.88
2022-11-18T10:40:15.395Z,70.35
2022-11-18T10:41:15.398Z,69.79
2022-11-18T10:42:15.379Z,69.31
2022-11-18T10:43:15.401Z,70.60
2022-11-18T10:44:15.422Z,68.76
2022-11-18T10:45:15.402Z,65.37
2022-11-18T10:46:15.331Z,69.12
2022-11-18T10:47:15.340Z,66.32
2022-11-18T10:48:15.303Z,67.50
2022-11-18T10:49:15.377Z,69.58
2022-11-18T10:50:15.304Z,66.61
2022-11-18T10:51:15.367Z,67.73
2022-11-18T10:52:16.302Z,69.74
2022-11-18T10:53:15.271Z,66.77
2022-11-18T10:54:15.847Z,67.15
2022-11-18T10:55:15.294Z,71.73
2022-11-18T10:56:15.275Z,66.18
2022-11-18T10:57:15.321Z,65.81
2022-11-18T10:58:15.297Z,64.36
2022-11-18T10:59:15.261Z,68.21
2022-11-18T11:00:15.270Z,65.09
2022-11-18T11:01:15.306Z,66.06
2022-11-18T11:02:15.333Z,67.81
2022-11-18T11:03:15.296Z,68.31
2022-11-18T11:04:15.637Z,66.90
2022-11-18T11:05:15.192Z,67.26
2022-11-18T11:06:15.195Z,66.07
2022-11-18T11:07:15.244Z,65.33
2022-11-18T11:08:35.693Z,69.73
2022-11-18T11:09:17.163Z,69.84
2022-11-18T11:10:15.236Z,69.86
2022-11-18T11:11:15.148Z,66.93
2022-11-18T11:12:15.167Z,71.35
2022-11-18T11:13:15.157Z,67.82
2022-11-18T11:14:15.165Z,71.82
2022-11-18T11:15:15.115Z,72.20
2022-11-18T11:16:15.129Z,72.29
2022-11-18T11:17:15.236Z,71.81
2022-11-18T11:18:15.125Z,73.83
2022-11-18T11:19:15.112Z,71.39
2022-11-18T11:20:15.093Z,70.03
2022-11-18T11:21:15.085Z,69.04
2022-11-18T11:22:15.119Z,73.38
2022-11-18T11:23:19.111Z,64.31
2022-11-18T11:24:21.393Z,63.46
2022-11-18T11:25:15.038Z,71.97
2022-11-18T11:28:17.522Z,70.41
2022-11-18T11:29:15.299Z,64.43
2022-11-18T11:30:16.211Z,70.05
2022-11-18T11:31:14.999Z,74.01
2022-11-18T11:32:15.032Z,72.07
2022-11-18T11:33:14.996Z,76.21
2022-11-18T11:34:14.970Z,74.29
2022-11-18T11:35:14.977Z,73.71
2022-11-18T11:36:14.989Z,68.73
2022-11-18T11:37:15.020Z,75.36
2022-11-18T11:38:15.053Z,73.71
2022-11-18T11:39:14.953Z,74.18
2022-11-18T11:40:15.006Z,72.14
2022-11-18T11:41:14.937Z,72.97
2022-11-18T11:42:14.981Z,68.60
2022-11-18T11:43:14.974Z,76.25
2022-11-18T11:44:14.934Z,74.20
2022-11-18T11:45:14.911Z,70.64
2022-11-18T11:46:14.898Z,71.88
2022-11-18T11:47:15.832Z,74.10
2022-11-18T11:48:14.886Z,71.04
2022-11-18T11:49:15.312Z,75.38
2022-11-18T11:50:14.967Z,75.04
2022-11-18T11:51:14.910Z,72.42
2022-11-18T11:52:14.883Z,64.96
2022-11-18T11:53:14.852Z,76.84
2022-11-18T11:54:14.867Z,75.10
2022-11-18T11:55:14.871Z,72.54
2022-11-18T11:56:21.131Z,72.12
2022-11-18T11:57:16.858Z,74.54
2022-11-18T11:58:14.878Z,73.98
2022-11-18T11:59:14.911Z,74.18
2022-11-18T12:00:14.899Z,74.49
2022-11-18T12:01:14.791Z,74.75
2022-11-18T12:02:15.770Z,74.53
2022-11-18T12:03:14.770Z,75.43
2022-11-18T12:04:14.752Z,74.46
2022-11-18T12:05:14.791Z,72.74
2022-11-18T12:06:14.752Z,73.65
2022-11-18T12:07:14.914Z,71.92
2022-11-18T12:08:14.715Z,72.38
2022-11-18T12:09:14.748Z,70.13
2022-11-18T12:10:14.744Z,73.29
2022-11-18T12:11:14.736Z,74.84
2022-11-18T12:12:14.683Z,78.45
2022-11-18T12:13:14.694Z,73.57
2022-11-18T12:14:14.748Z,75.73
2022-11-18T12:15:14.693Z,74.45
2022-11-18T12:16:14.650Z,71.77
2022-11-18T12:17:14.695Z,73.41
2022-11-18T12:18:14.658Z,72.63
2022-11-18T12:19:14.684Z,72.44
2022-11-18T12:20:14.607Z,70.49
2022-11-18T12:21:15.642Z,72.69
2022-11-18T12:22:14.625Z,77.29
2022-11-18T12:23:14.595Z,73.91
2022-11-18T12:24:14.589Z,74.11
2022-11-18T12:25:14.596Z,71.33
2022-11-18T12:26:14.620Z,75.04
2022-11-18T12:27:14.604Z,72.07
2022-11-18T12:28:14.851Z,72.40
2022-11-18T12:29:14.592Z,74.34
2022-11-18T12:30:14.554Z,73.51
2022-11-18T12:31:14.522Z,74.69
2022-11-18T12:32:14.562Z,74.53
2022-11-18T12:33:14.533Z,72.69
2022-11-18T12:34:14.549Z,66.54
2022-11-18T12:35:14.549Z,73.63
2022-11-18T12:36:14.523Z,72.18
2022-11-18T12:37:14.529Z,75.21
2022-11-18T12:38:14.577Z,72.97
2022-11-18T12:39:14.672Z,71.36
2022-11-18T12:40:14.574Z,72.86
2022-11-18T12:41:14.463Z,73.61
2022-11-18T12:42:14.451Z,71.87
2022-11-18T12:43:14.490Z,72.55
2022-11-18T12:44:14.470Z,69.20
2022-11-18T12:45:14.468Z,74.26
2022-11-18T12:46:14.417Z,73.22
2022-11-18T12:47:14.432Z,73.87
2022-11-18T12:48:14.400Z,75.84
2022-11-18T12:49:14.541Z,73.06
2022-11-18T12:50:14.510Z,74.64
2022-11-18T12:51:14.941Z,74.76
2022-11-18T12:52:14.412Z,69.95
2022-11-18T12:53:14.430Z,71.24
2022-11-18T12:54:14.391Z,74.75
2022-11-18T12:55:14.498Z,66.96
2022-11-18T12:56:14.350Z,69.66
2022-11-18T12:57:15.449Z,72.59
2022-11-18T12:58:14.391Z,73.49
2022-11-18T12:59:14.471Z,71.94
2022-11-18T13:00:15.282Z,69.82
2022-11-18T13:01:14.407Z,68.19
2022-11-18T13:02:14.321Z,74.28
2022-11-18T13:03:14.301Z,73.33
2022-11-18T13:04:14.291Z,73.83
2022-11-18T13:05:14.401Z,73.02
2022-11-18T13:06:14.307Z,74.76
2022-11-18T13:07:14.433Z,74.54
2022-11-18T13:08:14.281Z,70.95
2022-11-18T13:09:14.258Z,71.14
2022-11-18T13:10:14.263Z,72.40
2022-11-18T13:11:14.328Z,76.19
2022-11-18T13:12:14.255Z,73.48
2022-11-18T13:13:14.256Z,72.58
2022-11-18T13:14:14.240Z,72.37
2022-11-18T13:15:14.236Z,70.96
2022-11-18T13:16:14.215Z,71.43
2022-11-18T13:17:14.234Z,69.51
2022-11-18T13:18:14.194Z,71.91
2022-11-18T13:19:14.188Z,72.81
2022-11-18T13:20:14.166Z,74.34
2022-11-18T13:21:14.135Z,70.63
2022-11-18T13:22:14.257Z,75.71
2022-11-18T13:23:14.138Z,73.11
2022-11-18T13:24:14.189Z,71.37
2022-11-18T13:25:14.136Z,72.55
2022-11-18T13:26:14.157Z,72.84
2022-11-18T13:27:14.150Z,71.90
2022-11-18T13:28:14.152Z,69.48
2022-11-18T13:29:14.161Z,70.88
2022-11-18T13:30:14.103Z,72.67
2022-11-18T13:31:14.118Z,69.83
2022-11-18T13:32:14.089Z,70.74